PWSweather.com
Personal Weather Stations
Station Observations
WESTON01
WestonSuperMareGB BS22 8RT

WestonSuperMareGB BS22 8RT

Lat: 51.351508, Lon: -2.933373

Elevation: 15

Station Type: Fine Offset WH1080

http://www.westonweather.co.uk

Latest ConditionsUpdated 8:15:00 AM GMT Monday, Nov 19, 2018
Currently Today's Max Today's Min Today's Average
Temperature 42.7°F5.9°C 42.7°F5.9°C 36.6°F2.6°C 39.6°F4.2°C
Dew Point 35.3°F1.8°C 36.2°F2.3°C 30.4°F-0.9°C 33.2°F0.7°C
Winds 13.8 mph E22.2 kmh E 17.7 mph -28.5 kmh - - 9.9 mph 15.9 kmh
Wind Gusts 17.6 mph28.3 kmh 25.3 mph40.7 kmh - -
Humidity 75% 79% 75% 78%
Pressure 30.12 in1020.0 mb 30.18 in1022.0 mb 30.09 in1019.0 mb -
Hour Temp Dew Point Humidity Winds Wind Gusts Pressure Precip Precip Rate Daily Precip Total
08:15 AM 42.7°F5.9°C 35.3°F1.8°C 75% 13.8 mph E22.2 kmh E 17.6 mph28.3 kmh 30.12 in1020.0 mb 0.00 in0.0 mm 0.00 in0.0 mm 0.00 in0.0 mm
08:10 AM 42.7°F5.9°C 35.3°F1.8°C 75% 11.6 mph E18.7 kmh E 17.0 mph27.4 kmh 30.12 in1020.0 mb 0.00 in0.0 mm 0.00 in0.0 mm 0.00 in0.0 mm
08:05 AM 42.7°F5.9°C 35.3°F1.8°C 75% 10.1 mph ENE16.3 kmh ENE 14.6 mph23.5 kmh 30.12 in1020.0 mb 0.00 in0.0 mm 0.00 in0.0 mm 0.00 in0.0 mm
08:00 AM 42.7°F5.9°C 35.7°F2.1°C 76% 11.0 mph ENE17.7 kmh ENE 16.7 mph26.9 kmh 30.09 in1019.0 mb 0.00 in0.0 mm 0.00 in0.0 mm 0.00 in0.0 mm
07:55 AM 42.5°F5.8°C 35.5°F1.9°C 76% 12.3 mph ENE19.8 kmh ENE 16.7 mph26.9 kmh 30.09 in1019.0 mb 0.00 in0.0 mm 0.00 in0.0 mm 0.00 in0.0 mm
07:50 AM 42.5°F5.8°C 35.5°F1.9°C 76% 11.4 mph ENE18.3 kmh ENE 14.6 mph23.5 kmh 30.09 in1019.0 mb 0.00 in0.0 mm 0.00 in0.0 mm 0.00 in0.0 mm
07:45 AM 42.3°F5.7°C 35.3°F1.8°C 76% 9.6 mph NE15.4 kmh NE 13.7 mph22.0 kmh 30.09 in1019.0 mb 0.00 in0.0 mm 0.00 in0.0 mm 0.00 in0.0 mm
07:40 AM 42.3°F5.7°C 35.3°F1.8°C 76% 10.3 mph ENE16.6 kmh ENE 14.3 mph23.0 kmh 30.09 in1019.0 mb 0.00 in0.0 mm 0.00 in0.0 mm 0.00 in0.0 mm
07:35 AM 42.3°F5.7°C 35.3°F1.8°C 76% 11.4 mph E18.3 kmh E 14.6 mph23.5 kmh 30.09 in1019.0 mb 0.00 in0.0 mm 0.00 in0.0 mm 0.00 in0.0 mm
07:30 AM 42.5°F5.8°C 35.5°F1.9°C 76% 10.5 mph ENE16.9 kmh ENE 20.2 mph32.5 kmh 30.09 in1019.0 mb 0.00 in0.0 mm 0.00 in0.0 mm 0.00 in0.0 mm
07:25 AM 42.5°F5.8°C 35.5°F1.9°C 76% 12.9 mph E20.8 kmh E 20.2 mph32.5 kmh 30.09 in1019.0 mb 0.00 in0.0 mm 0.00 in0.0 mm 0.00 in0.0 mm
07:20 AM 42.7°F5.9°C 35.7°F2.1°C 76% 12.7 mph E20.4 kmh E 17.3 mph27.8 kmh 30.09 in1019.0 mb 0.00 in0.0 mm 0.00 in0.0 mm 0.00 in0.0 mm
07:15 AM 42.7°F5.9°C 36.0°F2.2°C 77% 11.1 mph E17.9 kmh E 17.3 mph27.8 kmh 30.09 in1019.0 mb 0.00 in0.0 mm 0.00 in0.0 mm 0.00 in0.0 mm
07:10 AM 42.7°F5.9°C 36.0°F2.2°C 77% 13.1 mph ENE21.1 kmh ENE 22.6 mph36.4 kmh 30.09 in1019.0 mb 0.00 in0.0 mm 0.00 in0.0 mm 0.00 in0.0 mm
07:05 AM 42.7°F5.9°C 36.0°F2.2°C 77% 13.2 mph ENE21.2 kmh ENE 22.6 mph36.4 kmh 30.09 in1019.0 mb 0.00 in0.0 mm 0.00 in0.0 mm 0.00 in0.0 mm
07:00 AM 42.7°F5.9°C 36.0°F2.2°C 77% 12.0 mph E19.3 kmh E 16.4 mph26.4 kmh 30.09 in1019.0 mb 0.00 in0.0 mm 0.00 in0.0 mm 0.00 in0.0 mm
06:55 AM 42.5°F5.8°C 35.8°F2.1°C 77% 11.5 mph E18.5 kmh E 16.4 mph26.4 kmh 30.09 in1019.0 mb 0.00 in0.0 mm 0.00 in0.0 mm 0.00 in0.0 mm
06:50 AM 42.5°F5.8°C 36.2°F2.3°C 78% 10.3 mph E16.6 kmh E 14.0 mph22.5 kmh 30.09 in1019.0 mb 0.00 in0.0 mm 0.00 in0.0 mm 0.00 in0.0 mm
06:45 AM 42.5°F5.8°C 36.2°F2.3°C 78% 11.8 mph E19.0 kmh E 16.1 mph25.9 kmh 30.09 in1019.0 mb 0.00 in0.0 mm 0.00 in0.0 mm 0.00 in0.0 mm
06:40 AM 42.5°F5.8°C 36.2°F2.3°C 78% 13.6 mph ENE21.9 kmh ENE 19.6 mph31.5 kmh 30.09 in1019.0 mb 0.00 in0.0 mm 0.00 in0.0 mm 0.00 in0.0 mm
06:35 AM 42.5°F5.8°C 36.2°F2.3°C 78% 12.9 mph ENE20.8 kmh ENE 19.6 mph31.5 kmh 30.09 in1019.0 mb 0.00 in0.0 mm 0.00 in0.0 mm 0.00 in0.0 mm
06:30 AM 42.3°F5.7°C 36.0°F2.2°C 78% 13.5 mph ENE21.7 kmh ENE 20.5 mph33.0 kmh 30.09 in1019.0 mb 0.00 in0.0 mm 0.00 in0.0 mm 0.00 in0.0 mm
06:25 AM 42.3°F5.7°C 36.0°F2.2°C 78% 14.5 mph ENE23.3 kmh ENE 20.5 mph33.0 kmh 30.09 in1019.0 mb 0.00 in0.0 mm 0.00 in0.0 mm 0.00 in0.0 mm
06:20 AM 42.3°F5.7°C 36.0°F2.2°C 78% 13.5 mph E21.7 kmh E 22.3 mph35.9 kmh 30.09 in1019.0 mb 0.00 in0.0 mm 0.00 in0.0 mm 0.00 in0.0 mm
06:15 AM 42.3°F5.7°C 36.0°F2.2°C 78% 11.8 mph E19.0 kmh E 22.3 mph35.9 kmh 30.09 in1019.0 mb 0.00 in0.0 mm 0.00 in0.0 mm 0.00 in0.0 mm
06:10 AM 42.3°F5.7°C 36.0°F2.2°C 78% 11.7 mph ENE18.8 kmh ENE 22.3 mph35.9 kmh 30.09 in1019.0 mb 0.00 in0.0 mm 0.00 in0.0 mm 0.00 in0.0 mm
06:05 AM 42.2°F5.7°C 35.8°F2.1°C 78% 12.2 mph ENE19.6 kmh ENE 16.7 mph26.9 kmh 30.09 in1019.0 mb 0.00 in0.0 mm 0.00 in0.0 mm 0.00 in0.0 mm
06:00 AM 42.2°F5.7°C 35.8°F2.1°C 78% 13.5 mph ENE21.7 kmh ENE 19.3 mph31.1 kmh 30.09 in1019.0 mb 0.00 in0.0 mm 0.00 in0.0 mm 0.00 in0.0 mm
05:55 AM 42.2°F5.7°C 36.1°F2.3°C 79% 13.9 mph NE22.4 kmh NE 19.3 mph31.1 kmh 30.09 in1019.0 mb 0.00 in0.0 mm 0.00 in0.0 mm 0.00 in0.0 mm
05:50 AM 42.0°F5.6°C 35.9°F2.2°C 79% 13.0 mph ENE20.9 kmh ENE 14.9 mph24.0 kmh 30.09 in1019.0 mb 0.00 in0.0 mm 0.00 in0.0 mm 0.00 in0.0 mm
05:45 AM 42.0°F5.6°C 35.9°F2.2°C 79% 13.3 mph E21.4 kmh E 19.6 mph31.5 kmh 30.12 in1020.0 mb 0.00 in0.0 mm 0.00 in0.0 mm 0.00 in0.0 mm
05:40 AM 41.8°F5.4°C 35.8°F2.1°C 79% 13.1 mph E21.1 kmh E 19.6 mph31.5 kmh 30.12 in1020.0 mb 0.00 in0.0 mm 0.00 in0.0 mm 0.00 in0.0 mm
05:35 AM 41.8°F5.4°C 35.8°F2.1°C 79% 13.4 mph ENE21.6 kmh ENE 16.7 mph26.9 kmh 30.12 in1020.0 mb 0.00 in0.0 mm 0.00 in0.0 mm 0.00 in0.0 mm
05:25 AM 41.6°F5.3°C 35.6°F2.0°C 79% 13.7 mph NE22.0 kmh NE 17.0 mph27.4 kmh 30.09 in1019.0 mb 0.00 in0.0 mm 0.00 in0.0 mm 0.00 in0.0 mm
05:20 AM 41.5°F5.3°C 35.4°F1.9°C 79% 13.6 mph ENE21.9 kmh ENE 20.5 mph33.0 kmh 30.09 in1019.0 mb 0.00 in0.0 mm 0.00 in0.0 mm 0.00 in0.0 mm
05:15 AM 41.5°F5.3°C 35.4°F1.9°C 79% 14.7 mph E23.7 kmh E 21.4 mph34.4 kmh 30.12 in1020.0 mb 0.00 in0.0 mm 0.00 in0.0 mm 0.00 in0.0 mm
05:10 AM 41.3°F5.2°C 35.2°F1.8°C 79% 17.7 mph E28.5 kmh E 25.3 mph40.7 kmh 30.12 in1020.0 mb 0.00 in0.0 mm 0.00 in0.0 mm 0.00 in0.0 mm
05:05 AM 41.1°F5.1°C 35.1°F1.7°C 79% 15.6 mph E25.1 kmh E 25.3 mph40.7 kmh 30.12 in1020.0 mb 0.00 in0.0 mm 0.00 in0.0 mm 0.00 in0.0 mm
05:00 AM 40.9°F4.9°C 34.9°F1.6°C 79% 13.3 mph ENE21.4 kmh ENE 17.9 mph28.8 kmh 30.12 in1020.0 mb 0.00 in0.0 mm 0.00 in0.0 mm 0.00 in0.0 mm
04:55 AM 40.7°F4.8°C 34.7°F1.5°C 79% 12.6 mph ENE20.3 kmh ENE 17.6 mph28.3 kmh 30.12 in1020.0 mb 0.00 in0.0 mm 0.00 in0.0 mm 0.00 in0.0 mm
04:50 AM 40.4°F4.7°C 34.4°F1.3°C 79% 10.8 mph E17.4 kmh E 14.0 mph22.5 kmh 30.12 in1020.0 mb 0.00 in0.0 mm 0.00 in0.0 mm 0.00 in0.0 mm
04:45 AM 40.4°F4.7°C 34.4°F1.3°C 79% 11.1 mph ENE17.9 kmh ENE 17.3 mph27.8 kmh 30.12 in1020.0 mb 0.00 in0.0 mm 0.00 in0.0 mm 0.00 in0.0 mm
04:40 AM 40.0°F4.4°C 33.7°F0.9°C 78% 12.0 mph ENE19.3 kmh ENE 17.3 mph27.8 kmh 30.12 in1020.0 mb 0.00 in0.0 mm 0.00 in0.0 mm 0.00 in0.0 mm
04:35 AM 39.5°F4.2°C 33.5°F0.8°C 79% 12.4 mph ENE20.0 kmh ENE 16.7 mph26.9 kmh 30.12 in1020.0 mb 0.00 in0.0 mm 0.00 in0.0 mm 0.00 in0.0 mm
04:30 AM 39.1°F3.9°C 32.8°F0.4°C 78% 10.5 mph ENE16.9 kmh ENE 16.7 mph26.9 kmh 30.12 in1020.0 mb 0.00 in0.0 mm 0.00 in0.0 mm 0.00 in0.0 mm
04:25 AM 38.9°F3.8°C 32.7°F0.4°C 78% 9.5 mph ENE15.3 kmh ENE 17.3 mph27.8 kmh 30.12 in1020.0 mb 0.00 in0.0 mm 0.00 in0.0 mm 0.00 in0.0 mm
04:20 AM 38.8°F3.8°C 32.5°F0.3°C 78% 9.9 mph NE15.9 kmh NE 17.3 mph27.8 kmh 30.12 in1020.0 mb 0.00 in0.0 mm 0.00 in0.0 mm 0.00 in0.0 mm
04:15 AM 38.8°F3.8°C 32.5°F0.3°C 78% 8.9 mph NE14.3 kmh NE 13.1 mph21.1 kmh 30.12 in1020.0 mb 0.00 in0.0 mm 0.00 in0.0 mm 0.00 in0.0 mm
04:10 AM 38.6°F3.7°C 32.0°F0.0°C 77% 8.5 mph NE13.7 kmh NE 15.2 mph24.5 kmh 30.12 in1020.0 mb 0.00 in0.0 mm 0.00 in0.0 mm 0.00 in0.0 mm
04:05 AM 38.6°F3.7°C 32.0°F0.0°C 77% 10.3 mph NE16.6 kmh NE 15.2 mph24.5 kmh 30.12 in1020.0 mb 0.00 in0.0 mm 0.00 in0.0 mm 0.00 in0.0 mm
04:00 AM 38.6°F3.7°C 32.0°F0.0°C 77% 11.7 mph NE18.8 kmh NE 14.3 mph23.0 kmh 30.12 in1020.0 mb 0.00 in0.0 mm 0.00 in0.0 mm 0.00 in0.0 mm
03:55 AM 38.6°F3.7°C 32.0°F0.0°C 77% 12.2 mph NE19.6 kmh NE 16.4 mph26.4 kmh 30.12 in1020.0 mb 0.00 in0.0 mm 0.00 in0.0 mm 0.00 in0.0 mm
03:50 AM 38.6°F3.7°C 32.0°F0.0°C 77% 11.6 mph ENE18.7 kmh ENE 16.4 mph26.4 kmh 30.12 in1020.0 mb 0.00 in0.0 mm 0.00 in0.0 mm 0.00 in0.0 mm
03:45 AM 38.6°F3.7°C 32.0°F0.0°C 77% 11.1 mph NE17.9 kmh NE 17.6 mph28.3 kmh 30.12 in1020.0 mb 0.00 in0.0 mm 0.00 in0.0 mm 0.00 in0.0 mm
03:40 AM 38.6°F3.7°C 32.0°F0.0°C 77% 11.7 mph ENE18.8 kmh ENE 17.6 mph28.3 kmh 30.12 in1020.0 mb 0.00 in0.0 mm 0.00 in0.0 mm 0.00 in0.0 mm
03:35 AM 38.4°F3.6°C 31.8°F-0.1°C 77% 12.2 mph ENE19.6 kmh ENE 17.6 mph28.3 kmh 30.12 in1020.0 mb 0.00 in0.0 mm 0.00 in0.0 mm 0.00 in0.0 mm
03:30 AM 38.2°F3.4°C 31.6°F-0.2°C 77% 12.0 mph ENE19.3 kmh ENE 15.2 mph24.5 kmh 30.12 in1020.0 mb 0.00 in0.0 mm 0.00 in0.0 mm 0.00 in0.0 mm
03:25 AM 38.0°F3.3°C 31.5°F-0.3°C 77% 11.6 mph ENE18.7 kmh ENE 15.2 mph24.5 kmh 30.12 in1020.0 mb 0.00 in0.0 mm 0.00 in0.0 mm 0.00 in0.0 mm
03:20 AM 38.0°F3.3°C 31.5°F-0.3°C 77% 12.1 mph ENE19.5 kmh ENE 14.3 mph23.0 kmh 30.12 in1020.0 mb 0.00 in0.0 mm 0.00 in0.0 mm 0.00 in0.0 mm
03:15 AM 37.8°F3.2°C 31.3°F-0.4°C 77% 11.1 mph ENE17.9 kmh ENE 14.3 mph23.0 kmh 30.12 in1020.0 mb 0.00 in0.0 mm 0.00 in0.0 mm 0.00 in0.0 mm
03:10 AM 37.7°F3.2°C 31.1°F-0.5°C 77% 8.1 mph ENE13.0 kmh ENE 12.8 mph20.6 kmh 30.12 in1020.0 mb 0.00 in0.0 mm 0.00 in0.0 mm 0.00 in0.0 mm
03:05 AM 37.7°F3.2°C 31.1°F-0.5°C 77% 7.9 mph NE12.7 kmh NE 12.8 mph20.6 kmh 30.12 in1020.0 mb 0.00 in0.0 mm 0.00 in0.0 mm 0.00 in0.0 mm
03:00 AM 37.7°F3.2°C 31.1°F-0.5°C 77% 9.7 mph ENE15.6 kmh ENE 14.0 mph22.5 kmh 30.12 in1020.0 mb 0.00 in0.0 mm 0.00 in0.0 mm 0.00 in0.0 mm
02:55 AM 37.8°F3.2°C 31.3°F-0.4°C 77% 10.6 mph ENE17.1 kmh ENE 14.0 mph22.5 kmh 30.12 in1020.0 mb 0.00 in0.0 mm 0.00 in0.0 mm 0.00 in0.0 mm
02:50 AM 37.8°F3.2°C 31.3°F-0.4°C 77% 10.2 mph NE16.4 kmh NE 14.0 mph22.5 kmh 30.12 in1020.0 mb 0.00 in0.0 mm 0.00 in0.0 mm 0.00 in0.0 mm
02:45 AM 37.8°F3.2°C 31.3°F-0.4°C 77% 8.9 mph NE14.3 kmh NE 11.3 mph18.2 kmh 30.15 in1021.0 mb 0.00 in0.0 mm 0.00 in0.0 mm 0.00 in0.0 mm
02:40 AM 37.8°F3.2°C 31.3°F-0.4°C 77% 8.5 mph NE13.7 kmh NE 13.7 mph22.0 kmh 30.15 in1021.0 mb 0.00 in0.0 mm 0.00 in0.0 mm 0.00 in0.0 mm
02:35 AM 37.8°F3.2°C 31.3°F-0.4°C 77% 9.7 mph NE15.6 kmh NE 14.0 mph22.5 kmh 30.15 in1021.0 mb 0.00 in0.0 mm 0.00 in0.0 mm 0.00 in0.0 mm
02:30 AM 38.0°F3.3°C 31.5°F-0.3°C 77% 9.6 mph ENE15.4 kmh ENE 14.0 mph22.5 kmh 30.15 in1021.0 mb 0.00 in0.0 mm 0.00 in0.0 mm 0.00 in0.0 mm
02:25 AM 38.0°F3.3°C 31.5°F-0.3°C 77% 9.2 mph ENE14.8 kmh ENE 10.7 mph17.2 kmh 30.15 in1021.0 mb 0.00 in0.0 mm 0.00 in0.0 mm 0.00 in0.0 mm
02:20 AM 38.0°F3.3°C 31.5°F-0.3°C 77% 9.4 mph ENE15.1 kmh ENE 10.7 mph17.2 kmh 30.15 in1021.0 mb 0.00 in0.0 mm 0.00 in0.0 mm 0.00 in0.0 mm
02:15 AM 38.0°F3.3°C 31.5°F-0.3°C 77% 9.9 mph ENE15.9 kmh ENE 13.1 mph21.1 kmh 30.15 in1021.0 mb 0.00 in0.0 mm 0.00 in0.0 mm 0.00 in0.0 mm
02:10 AM 38.0°F3.3°C 31.5°F-0.3°C 77% 9.3 mph E15.0 kmh E 13.1 mph21.1 kmh 30.15 in1021.0 mb 0.00 in0.0 mm 0.00 in0.0 mm 0.00 in0.0 mm
02:05 AM 38.0°F3.3°C 31.5°F-0.3°C 77% 9.7 mph E15.6 kmh E 14.0 mph22.5 kmh 30.15 in1021.0 mb 0.00 in0.0 mm 0.00 in0.0 mm 0.00 in0.0 mm
02:00 AM 37.8°F3.2°C 31.6°F-0.2°C 78% 10.8 mph E17.4 kmh E 14.0 mph22.5 kmh 30.15 in1021.0 mb 0.00 in0.0 mm 0.00 in0.0 mm 0.00 in0.0 mm
01:55 AM 37.5°F3.1°C 31.3°F-0.4°C 78% 9.6 mph ENE15.4 kmh ENE 14.0 mph22.5 kmh 30.15 in1021.0 mb 0.00 in0.0 mm 0.00 in0.0 mm 0.00 in0.0 mm
01:50 AM 37.3°F2.9°C 31.1°F-0.5°C 78% 8.0 mph E12.9 kmh E 10.7 mph17.2 kmh 30.15 in1021.0 mb 0.00 in0.0 mm 0.00 in0.0 mm 0.00 in0.0 mm
01:45 AM 37.3°F2.9°C 31.1°F-0.5°C 78% 7.6 mph E12.2 kmh E 8.9 mph14.3 kmh 30.15 in1021.0 mb 0.00 in0.0 mm 0.00 in0.0 mm 0.00 in0.0 mm
01:40 AM 37.0°F2.8°C 30.7°F-0.7°C 78% 6.2 mph ENE10.0 kmh ENE 8.3 mph13.4 kmh 30.15 in1021.0 mb 0.00 in0.0 mm 0.00 in0.0 mm 0.00 in0.0 mm
01:35 AM 36.8°F2.7°C 30.6°F-0.8°C 78% 5.1 mph NE8.2 kmh NE 10.1 mph16.3 kmh 30.15 in1021.0 mb 0.00 in0.0 mm 0.00 in0.0 mm 0.00 in0.0 mm
01:30 AM 36.8°F2.7°C 30.6°F-0.8°C 78% 4.3 mph NE6.9 kmh NE 10.1 mph16.3 kmh 30.15 in1021.0 mb 0.00 in0.0 mm 0.00 in0.0 mm 0.00 in0.0 mm
01:25 AM 36.8°F2.7°C 30.6°F-0.8°C 78% 4.3 mph ENE6.9 kmh ENE 6.5 mph10.5 kmh 30.15 in1021.0 mb 0.00 in0.0 mm 0.00 in0.0 mm 0.00 in0.0 mm
01:20 AM 36.8°F2.7°C 30.6°F-0.8°C 78% 4.7 mph ENE7.6 kmh ENE 6.5 mph10.5 kmh 30.15 in1021.0 mb 0.00 in0.0 mm 0.00 in0.0 mm 0.00 in0.0 mm
01:15 AM 36.8°F2.7°C 30.6°F-0.8°C 78% 4.5 mph E7.2 kmh E 5.7 mph9.2 kmh 30.15 in1021.0 mb 0.00 in0.0 mm 0.00 in0.0 mm 0.00 in0.0 mm
01:10 AM 36.6°F2.6°C 30.4°F-0.9°C 78% 3.3 mph ENE5.3 kmh ENE 5.1 mph8.2 kmh 30.15 in1021.0 mb 0.00 in0.0 mm 0.00 in0.0 mm 0.00 in0.0 mm
01:05 AM 36.6°F2.6°C 30.4°F-0.9°C 78% 2.9 mph NNE4.7 kmh NNE 5.7 mph9.2 kmh 30.15 in1021.0 mb 0.00 in0.0 mm 0.00 in0.0 mm 0.00 in0.0 mm
01:00 AM 36.8°F2.7°C 30.6°F-0.8°C 78% 3.3 mph N5.3 kmh N 5.7 mph9.2 kmh 30.15 in1021.0 mb 0.00 in0.0 mm 0.00 in0.0 mm 0.00 in0.0 mm
12:55 AM 36.8°F2.7°C 30.6°F-0.8°C 78% 3.6 mph NE5.8 kmh NE 5.7 mph9.2 kmh 30.15 in1021.0 mb 0.00 in0.0 mm 0.00 in0.0 mm 0.00 in0.0 mm
12:50 AM 36.8°F2.7°C 30.6°F-0.8°C 78% 3.9 mph NE6.3 kmh NE 6.0 mph9.7 kmh 30.15 in1021.0 mb 0.00 in0.0 mm 0.00 in0.0 mm 0.00 in0.0 mm
12:45 AM 37.0°F2.8°C 30.7°F-0.7°C 78% 3.5 mph NNE5.6 kmh NNE 6.0 mph9.7 kmh 30.18 in1022.0 mb 0.00 in0.0 mm 0.00 in0.0 mm 0.00 in0.0 mm
12:40 AM 37.0°F2.8°C 30.7°F-0.7°C 78% 3.6 mph NNE5.8 kmh NNE 5.7 mph9.2 kmh 30.18 in1022.0 mb 0.00 in0.0 mm 0.00 in0.0 mm 0.00 in0.0 mm
12:35 AM 37.0°F2.8°C 30.7°F-0.7°C 78% 4.2 mph NNE6.8 kmh NNE 7.1 mph11.4 kmh 30.18 in1022.0 mb 0.00 in0.0 mm 0.00 in0.0 mm 0.00 in0.0 mm
12:30 AM 37.0°F2.8°C 30.7°F-0.7°C 78% 4.3 mph NE6.9 kmh NE 7.1 mph11.4 kmh 30.18 in1022.0 mb 0.00 in0.0 mm 0.00 in0.0 mm 0.00 in0.0 mm
12:25 AM 37.0°F2.8°C 30.7°F-0.7°C 78% 4.0 mph NE6.4 kmh NE 4.8 mph7.7 kmh 30.18 in1022.0 mb 0.00 in0.0 mm 0.00 in0.0 mm 0.00 in0.0 mm
12:20 AM 37.1°F2.8°C 30.9°F-0.6°C 78% 3.6 mph NNE5.8 kmh NNE 5.7 mph9.2 kmh 30.18 in1022.0 mb 0.00 in0.0 mm 0.00 in0.0 mm 0.00 in0.0 mm
12:15 AM 37.5°F3.1°C 31.3°F-0.4°C 78% 3.4 mph NE5.5 kmh NE 5.7 mph9.2 kmh 30.18 in1022.0 mb 0.00 in0.0 mm 0.00 in0.0 mm 0.00 in0.0 mm
12:10 AM 37.5°F3.1°C 31.3°F-0.4°C 78% 4.3 mph NE6.9 kmh NE 6.5 mph10.5 kmh 30.18 in1022.0 mb 0.00 in0.0 mm 0.00 in0.0 mm 0.00 in0.0 mm
12:05 AM 37.5°F3.1°C 31.3°F-0.4°C 78% 5.1 mph ENE8.2 kmh ENE 7.1 mph11.4 kmh 30.18 in1022.0 mb 0.00 in0.0 mm 0.00 in0.0 mm 0.00 in0.0 mm
12:00 AM 37.7°F3.2°C 31.4°F-0.3°C 78% 6.0 mph ENE9.7 kmh ENE 10.4 mph16.7 kmh 30.18 in1022.0 mb 0.00 in0.0 mm 0.00 in0.0 mm 0.00 in0.0 mm